Windsor Castle, Pennsylvania
Current Conditions -  °F | °C
As of 4:54 PM on Friday 24 Oct 2014 (Local Time) from KRDG Reporting Station
Clear Clear  
Wind Chill: 67°   Ceiling: Unl
Heat Index: 67°   Visibility: 10mi
Dew Point: 41°   Wind: 12mph
Humidity: 39%   Direction: 300°WNW
Pressure: 29.82"   Gusts: NA
Location:  40.5494°N, 75.999°W
Report Text: KRDG 242054Z 30010KT 10SM CLR 19/05 A2982 RMK AO2 SLP101 T01940050 55009
Loading
Personal Weather Stations






























Interactive Weather Map
Tropical Storm Tracking
New forecast layout! Learn more

10-Day Weather Forecast

Advertisements
Track Severe Weather on mobile